sensor_id;sensor_type;location;lat;lon;timestamp;P1;durP1;ratioP1;P2;durP2;ratioP2
2326;SDS011;1174;51.588;7.328;2023-04-10T00:02:12;13.30;;;9.90;;
2326;SDS011;1174;51.588;7.328;2023-04-10T00:04:40;20.50;;;12.90;;
2326;SDS011;1174;51.588;7.328;2023-04-10T00:07:09;14.63;;;10.30;;
2326;SDS011;1174;51.588;7.328;2023-04-10T00:09:37;21.97;;;13.33;;
2326;SDS011;1174;51.588;7.328;2023-04-10T00:12:12;24.47;;;12.80;;
2326;SDS011;1174;51.588;7.328;2023-04-10T00:14:40;20.17;;;12.87;;
2326;SDS011;1174;51.588;7.328;2023-04-10T00:17:25;27.03;;;13.83;;
2326;SDS011;1174;51.588;7.328;2023-04-10T00:19:52;21.73;;;15.03;;
2326;SDS011;1174;51.588;7.328;2023-04-10T00:22:30;27.30;;;15.13;;
2326;SDS011;1174;51.588;7.328;2023-04-10T00:25:00;30.53;;;16.10;;
2326;SDS011;1174;51.588;7.328;2023-04-10T00:27:27;26.07;;;14.70;;
2326;SDS011;1174;51.588;7.328;2023-04-10T00:29:56;30.47;;;15.17;;
2326;SDS011;1174;51.588;7.328;2023-04-10T00:32:23;28.27;;;16.27;;
2326;SDS011;1174;51.588;7.328;2023-04-10T00:34:50;28.40;;;13.60;;
2326;SDS011;1174;51.588;7.328;2023-04-10T00:37:21;35.03;;;19.73;;
2326;SDS011;1174;51.588;7.328;2023-04-10T00:39:50;27.63;;;16.27;;
2326;SDS011;1174;51.588;7.328;2023-04-10T00:42:22;32.30;;;17.73;;
2326;SDS011;1174;51.588;7.328;2023-04-10T00:44:50;31.70;;;16.87;;
2326;SDS011;1174;51.588;7.328;2023-04-10T00:47:17;32.83;;;17.13;;
2326;SDS011;1174;51.588;7.328;2023-04-10T00:49:47;33.53;;;17.27;;
2326;SDS011;1174;51.588;7.328;2023-04-10T00:52:14;34.90;;;18.80;;
2326;SDS011;1174;51.588;7.328;2023-04-10T00:54:43;36.13;;;14.73;;
2326;SDS011;1174;51.588;7.328;2023-04-10T00:57:12;34.27;;;17.70;;
2326;SDS011;1174;51.588;7.328;2023-04-10T00:59:39;29.63;;;16.73;;
2326;SDS011;1174;51.588;7.328;2023-04-10T01:02:07;27.77;;;19.23;;
2326;SDS011;1174;51.588;7.328;2023-04-10T01:04:37;35.67;;;17.20;;
2326;SDS011;1174;51.588;7.328;2023-04-10T01:07:08;27.33;;;17.43;;
2326;SDS011;1174;51.588;7.328;2023-04-10T01:09:43;26.20;;;16.77;;
2326;SDS011;1174;51.588;7.328;2023-04-10T01:12:23;22.83;;;17.33;;
2326;SDS011;1174;51.588;7.328;2023-04-10T01:15:01;35.37;;;20.07;;
2326;SDS011;1174;51.588;7.328;2023-04-10T01:17:36;36.37;;;18.17;;
2326;SDS011;1174;51.588;7.328;2023-04-10T01:20:11;40.93;;;20.40;;
2326;SDS011;1174;51.588;7.328;2023-04-10T01:22:48;37.27;;;19.53;;
2326;SDS011;1174;51.588;7.328;2023-04-10T01:25:33;29.80;;;18.63;;
2326;SDS011;1174;51.588;7.328;2023-04-10T01:31:17;37.47;;;16.37;;
2326;SDS011;1174;51.588;7.328;2023-04-10T01:33:51;30.33;;;17.33;;
2326;SDS011;1174;51.588;7.328;2023-04-10T01:36:24;30.10;;;19.23;;
2326;SDS011;1174;51.588;7.328;2023-04-10T01:38:57;29.23;;;17.00;;
2326;SDS011;1174;51.588;7.328;2023-04-10T01:41:27;26.50;;;16.80;;
2326;SDS011;1174;51.588;7.328;2023-04-10T01:44:00;31.20;;;16.87;;
2326;SDS011;1174;51.588;7.328;2023-04-10T01:46:31;29.70;;;16.03;;
2326;SDS011;1174;51.588;7.328;2023-04-10T01:49:06;31.40;;;15.97;;
2326;SDS011;1174;51.588;7.328;2023-04-10T01:51:36;29.97;;;15.17;;
2326;SDS011;1174;51.588;7.328;2023-04-10T01:54:04;33.80;;;17.53;;
2326;SDS011;1174;51.588;7.328;2023-04-10T01:56:32;28.73;;;16.47;;
2326;SDS011;1174;51.588;7.328;2023-04-10T01:59:02;36.83;;;17.40;;
2326;SDS011;1174;51.588;7.328;2023-04-10T02:01:30;36.23;;;20.57;;
2326;SDS011;1174;51.588;7.328;2023-04-10T02:03:57;34.43;;;18.90;;
2326;SDS011;1174;51.588;7.328;2023-04-10T02:06:28;35.90;;;16.43;;
2326;SDS011;1174;51.588;7.328;2023-04-10T02:09:09;28.67;;;19.17;;
2326;SDS011;1174;51.588;7.328;2023-04-10T02:11:46;32.37;;;18.27;;
2326;SDS011;1174;51.588;7.328;2023-04-10T02:14:23;27.63;;;17.47;;
2326;SDS011;1174;51.588;7.328;2023-04-10T02:16:53;36.00;;;19.17;;
2326;SDS011;1174;51.588;7.328;2023-04-10T02:19:22;31.73;;;16.53;;
2326;SDS011;1174;51.588;7.328;2023-04-10T02:21:57;36.40;;;20.47;;
2326;SDS011;1174;51.588;7.328;2023-04-10T02:24:24;33.73;;;16.77;;
2326;SDS011;1174;51.588;7.328;2023-04-10T02:26:52;32.93;;;17.40;;
2326;SDS011;1174;51.588;7.328;2023-04-10T02:29:26;40.13;;;17.20;;
2326;SDS011;1174;51.588;7.328;2023-04-10T02:31:57;28.67;;;18.20;;
2326;SDS011;1174;51.588;7.328;2023-04-10T02:34:25;40.67;;;17.23;;
2326;SDS011;1174;51.588;7.328;2023-04-10T02:36:53;27.97;;;16.97;;
2326;SDS011;1174;51.588;7.328;2023-04-10T02:39:21;26.23;;;14.60;;
2326;SDS011;1174;51.588;7.328;2023-04-10T02:41:49;27.67;;;16.10;;
2326;SDS011;1174;51.588;7.328;2023-04-10T02:44:16;36.70;;;17.07;;
2326;SDS011;1174;51.588;7.328;2023-04-10T02:46:48;26.17;;;14.67;;
2326;SDS011;1174;51.588;7.328;2023-04-10T02:49:15;28.40;;;18.47;;
2326;SDS011;1174;51.588;7.328;2023-04-10T02:51:44;29.43;;;17.60;;
2326;SDS011;1174;51.588;7.328;2023-04-10T02:54:11;20.63;;;16.03;;
2326;SDS011;1174;51.588;7.328;2023-04-10T02:56:40;26.43;;;15.40;;
2326;SDS011;1174;51.588;7.328;2023-04-10T02:59:08;26.73;;;16.40;;
2326;SDS011;1174;51.588;7.328;2023-04-10T03:01:41;21.13;;;13.77;;
2326;SDS011;1174;51.588;7.328;2023-04-10T03:04:11;20.03;;;13.50;;
2326;SDS011;1174;51.588;7.328;2023-04-10T03:06:38;30.73;;;14.40;;
2326;SDS011;1174;51.588;7.328;2023-04-10T03:09:28;23.83;;;15.20;;
2326;SDS011;1174;51.588;7.328;2023-04-10T03:11:58;21.87;;;13.17;;
2326;SDS011;1174;51.588;7.328;2023-04-10T03:14:27;22.40;;;11.53;;
2326;SDS011;1174;51.588;7.328;2023-04-10T03:16:56;26.97;;;15.13;;
2326;SDS011;1174;51.588;7.328;2023-04-10T03:19:24;23.10;;;13.43;;
2326;SDS011;1174;51.588;7.328;2023-04-10T03:21:52;19.67;;;13.63;;
2326;SDS011;1174;51.588;7.328;2023-04-10T03:24:19;26.30;;;11.27;;
2326;SDS011;1174;51.588;7.328;2023-04-10T03:26:46;21.17;;;12.60;;
2326;SDS011;1174;51.588;7.328;2023-04-10T03:29:13;21.83;;;13.53;;
2326;SDS011;1174;51.588;7.328;2023-04-10T03:31:43;23.03;;;12.43;;
2326;SDS011;1174;51.588;7.328;2023-04-10T03:34:13;23.10;;;11.40;;
2326;SDS011;1174;51.588;7.328;2023-04-10T03:36:42;13.77;;;10.47;;
2326;SDS011;1174;51.588;7.328;2023-04-10T03:39:10;20.73;;;11.33;;
2326;SDS011;1174;51.588;7.328;2023-04-10T03:41:37;23.50;;;11.67;;
2326;SDS011;1174;51.588;7.328;2023-04-10T03:44:07;25.80;;;13.20;;
2326;SDS011;1174;51.588;7.328;2023-04-10T03:46:35;17.00;;;12.57;;
2326;SDS011;1174;51.588;7.328;2023-04-10T03:49:07;14.80;;;9.93;;
2326;SDS011;1174;51.588;7.328;2023-04-10T03:51:37;18.10;;;10.60;;
2326;SDS011;1174;51.588;7.328;2023-04-10T03:54:06;17.90;;;10.57;;
2326;SDS011;1174;51.588;7.328;2023-04-10T03:56:34;15.47;;;10.20;;
2326;SDS011;1174;51.588;7.328;2023-04-10T03:59:01;15.40;;;10.60;;
2326;SDS011;1174;51.588;7.328;2023-04-10T04:01:28;20.60;;;10.47;;
2326;SDS011;1174;51.588;7.328;2023-04-10T04:03:57;17.03;;;11.07;;
2326;SDS011;1174;51.588;7.328;2023-04-10T04:06:24;17.80;;;10.70;;
2326;SDS011;1174;51.588;7.328;2023-04-10T04:08:58;19.43;;;11.97;;
2326;SDS011;1174;51.588;7.328;2023-04-10T04:11:29;16.23;;;10.03;;
2326;SDS011;1174;51.588;7.328;2023-04-10T04:13:57;17.07;;;11.73;;
2326;SDS011;1174;51.588;7.328;2023-04-10T04:16:25;14.73;;;10.90;;
2326;SDS011;1174;51.588;7.328;2023-04-10T04:18:52;20.03;;;12.37;;
2326;SDS011;1174;51.588;7.328;2023-04-10T04:21:20;15.63;;;9.07;;
2326;SDS011;1174;51.588;7.328;2023-04-10T04:23:56;16.17;;;10.60;;
2326;SDS011;1174;51.588;7.328;2023-04-10T04:26:24;18.50;;;9.00;;
2326;SDS011;1174;51.588;7.328;2023-04-10T04:28:52;18.23;;;9.30;;
2326;SDS011;1174;51.588;7.328;2023-04-10T04:31:22;22.40;;;11.90;;
2326;SDS011;1174;51.588;7.328;2023-04-10T04:33:56;20.10;;;11.27;;
2326;SDS011;1174;51.588;7.328;2023-04-10T04:36:25;24.60;;;14.07;;
2326;SDS011;1174;51.588;7.328;2023-04-10T04:38:53;27.50;;;13.40;;
2326;SDS011;1174;51.588;7.328;2023-04-10T04:41:20;14.70;;;9.30;;
2326;SDS011;1174;51.588;7.328;2023-04-10T04:43:47;28.13;;;14.43;;
2326;SDS011;1174;51.588;7.328;2023-04-10T04:46:19;21.40;;;11.97;;
2326;SDS011;1174;51.588;7.328;2023-04-10T04:48:46;23.50;;;15.30;;
2326;SDS011;1174;51.588;7.328;2023-04-10T04:51:13;23.40;;;14.60;;
2326;SDS011;1174;51.588;7.328;2023-04-10T04:53:40;29.50;;;14.63;;
2326;SDS011;1174;51.588;7.328;2023-04-10T04:56:07;24.03;;;14.43;;
2326;SDS011;1174;51.588;7.328;2023-04-10T04:58:35;21.87;;;12.97;;
2326;SDS011;1174;51.588;7.328;2023-04-10T05:01:02;22.30;;;13.57;;
2326;SDS011;1174;51.588;7.328;2023-04-10T05:03:31;22.43;;;13.50;;
2326;SDS011;1174;51.588;7.328;2023-04-10T05:05:58;20.40;;;15.33;;
2326;SDS011;1174;51.588;7.328;2023-04-10T05:08:25;27.07;;;13.93;;
2326;SDS011;1174;51.588;7.328;2023-04-10T05:10:52;25.70;;;14.43;;
2326;SDS011;1174;51.588;7.328;2023-04-10T05:13:20;25.30;;;14.23;;
2326;SDS011;1174;51.588;7.328;2023-04-10T05:15:47;22.77;;;12.87;;
2326;SDS011;1174;51.588;7.328;2023-04-10T05:18:14;24.20;;;12.83;;
2326;SDS011;1174;51.588;7.328;2023-04-10T05:20:45;20.23;;;13.23;;
2326;SDS011;1174;51.588;7.328;2023-04-10T05:23:12;26.03;;;14.70;;
2326;SDS011;1174;51.588;7.328;2023-04-10T05:25:39;27.30;;;13.40;;
2326;SDS011;1174;51.588;7.328;2023-04-10T05:28:06;27.57;;;14.53;;
2326;SDS011;1174;51.588;7.328;2023-04-10T05:30:33;23.30;;;13.87;;
2326;SDS011;1174;51.588;7.328;2023-04-10T05:33:01;43.47;;;16.07;;
2326;SDS011;1174;51.588;7.328;2023-04-10T05:35:28;22.70;;;11.87;;
2326;SDS011;1174;51.588;7.328;2023-04-10T05:37:56;29.77;;;13.97;;
2326;SDS011;1174;51.588;7.328;2023-04-10T05:40:24;20.63;;;13.47;;
2326;SDS011;1174;51.588;7.328;2023-04-10T05:42:53;24.90;;;13.00;;
2326;SDS011;1174;51.588;7.328;2023-04-10T05:45:20;22.83;;;14.13;;
2326;SDS011;1174;51.588;7.328;2023-04-10T05:47:48;24.47;;;14.07;;
2326;SDS011;1174;51.588;7.328;2023-04-10T05:50:18;24.73;;;13.90;;
2326;SDS011;1174;51.588;7.328;2023-04-10T05:53:04;28.87;;;15.53;;
2326;SDS011;1174;51.588;7.328;2023-04-10T05:55:34;22.80;;;13.60;;
2326;SDS011;1174;51.588;7.328;2023-04-10T05:58:19;22.20;;;12.20;;
2326;SDS011;1174;51.588;7.328;2023-04-10T06:00:54;27.67;;;13.47;;
2326;SDS011;1174;51.588;7.328;2023-04-10T06:03:27;25.37;;;13.70;;
2326;SDS011;1174;51.588;7.328;2023-04-10T06:05:59;28.77;;;13.67;;
2326;SDS011;1174;51.588;7.328;2023-04-10T06:08:42;25.17;;;13.17;;
2326;SDS011;1174;51.588;7.328;2023-04-10T06:11:12;19.37;;;11.13;;
2326;SDS011;1174;51.588;7.328;2023-04-10T06:13:42;17.77;;;11.00;;
2326;SDS011;1174;51.588;7.328;2023-04-10T06:16:10;19.00;;;14.47;;
2326;SDS011;1174;51.588;7.328;2023-04-10T06:18:39;22.43;;;12.90;;
2326;SDS011;1174;51.588;7.328;2023-04-10T06:21:06;26.53;;;12.83;;
2326;SDS011;1174;51.588;7.328;2023-04-10T06:23:42;25.30;;;14.67;;
2326;SDS011;1174;51.588;7.328;2023-04-10T06:26:09;21.63;;;12.20;;
2326;SDS011;1174;51.588;7.328;2023-04-10T06:28:39;24.13;;;12.43;;
2326;SDS011;1174;51.588;7.328;2023-04-10T06:31:13;22.20;;;13.23;;
2326;SDS011;1174;51.588;7.328;2023-04-10T06:33:43;24.37;;;14.20;;
2326;SDS011;1174;51.588;7.328;2023-04-10T06:36:19;25.67;;;14.20;;
2326;SDS011;1174;51.588;7.328;2023-04-10T06:38:54;21.87;;;11.17;;
2326;SDS011;1174;51.588;7.328;2023-04-10T06:41:21;22.77;;;14.00;;
2326;SDS011;1174;51.588;7.328;2023-04-10T06:44:06;23.37;;;12.13;;
2326;SDS011;1174;51.588;7.328;2023-04-10T06:46:49;20.37;;;12.63;;
2326;SDS011;1174;51.588;7.328;2023-04-10T06:49:34;19.73;;;10.93;;
2326;SDS011;1174;51.588;7.328;2023-04-10T06:55:10;21.87;;;13.93;;
2326;SDS011;1174;51.588;7.328;2023-04-10T06:57:40;19.70;;;12.20;;
2326;SDS011;1174;51.588;7.328;2023-04-10T07:00:10;16.80;;;10.03;;
2326;SDS011;1174;51.588;7.328;2023-04-10T07:02:38;18.20;;;10.40;;
2326;SDS011;1174;51.588;7.328;2023-04-10T07:05:11;16.53;;;10.00;;
2326;SDS011;1174;51.588;7.328;2023-04-10T07:07:54;22.17;;;11.77;;
2326;SDS011;1174;51.588;7.328;2023-04-10T07:10:26;14.23;;;9.30;;
2326;SDS011;1174;51.588;7.328;2023-04-10T07:12:56;16.50;;;10.50;;
2326;SDS011;1174;51.588;7.328;2023-04-10T07:15:24;17.00;;;10.17;;
2326;SDS011;1174;51.588;7.328;2023-04-10T07:17:54;14.70;;;9.60;;
2326;SDS011;1174;51.588;7.328;2023-04-10T07:20:25;15.33;;;10.20;;
2326;SDS011;1174;51.588;7.328;2023-04-10T07:22:52;16.67;;;9.97;;
2326;SDS011;1174;51.588;7.328;2023-04-10T07:25:23;11.60;;;9.23;;
2326;SDS011;1174;51.588;7.328;2023-04-10T07:27:52;13.00;;;7.90;;
2326;SDS011;1174;51.588;7.328;2023-04-10T07:30:25;9.90;;;7.73;;
2326;SDS011;1174;51.588;7.328;2023-04-10T07:32:53;16.17;;;7.90;;
2326;SDS011;1174;51.588;7.328;2023-04-10T07:35:27;10.30;;;6.93;;
2326;SDS011;1174;51.588;7.328;2023-04-10T07:37:58;7.47;;;5.80;;
2326;SDS011;1174;51.588;7.328;2023-04-10T07:40:27;9.70;;;5.07;;
2326;SDS011;1174;51.588;7.328;2023-04-10T07:42:57;4.93;;;4.43;;
2326;SDS011;1174;51.588;7.328;2023-04-10T07:45:37;4.20;;;2.70;;
2326;SDS011;1174;51.588;7.328;2023-04-10T07:48:06;3.50;;;3.03;;
2326;SDS011;1174;51.588;7.328;2023-04-10T07:50:34;3.10;;;2.40;;
2326;SDS011;1174;51.588;7.328;2023-04-10T07:53:01;21.13;;;3.30;;
2326;SDS011;1174;51.588;7.328;2023-04-10T07:55:32;4.80;;;3.70;;
2326;SDS011;1174;51.588;7.328;2023-04-10T07:58:11;5.10;;;3.17;;
2326;SDS011;1174;51.588;7.328;2023-04-10T08:00:38;4.20;;;2.93;;
2326;SDS011;1174;51.588;7.328;2023-04-10T08:03:06;2.93;;;2.00;;
2326;SDS011;1174;51.588;7.328;2023-04-10T08:05:33;2.30;;;2.10;;
2326;SDS011;1174;51.588;7.328;2023-04-10T08:08:03;3.13;;;2.50;;
2326;SDS011;1174;51.588;7.328;2023-04-10T08:10:30;3.47;;;2.63;;
2326;SDS011;1174;51.588;7.328;2023-04-10T08:12:57;3.10;;;2.10;;
2326;SDS011;1174;51.588;7.328;2023-04-10T08:15:26;3.30;;;2.30;;
2326;SDS011;1174;51.588;7.328;2023-04-10T08:17:53;3.00;;;2.27;;
2326;SDS011;1174;51.588;7.328;2023-04-10T08:20:22;3.70;;;2.57;;
2326;SDS011;1174;51.588;7.328;2023-04-10T08:22:49;4.00;;;3.37;;
2326;SDS011;1174;51.588;7.328;2023-04-10T08:25:17;3.10;;;2.60;;
2326;SDS011;1174;51.588;7.328;2023-04-10T08:27:43;2.93;;;1.90;;
2326;SDS011;1174;51.588;7.328;2023-04-10T08:30:14;7.60;;;3.60;;
2326;SDS011;1174;51.588;7.328;2023-04-10T08:32:43;3.07;;;2.47;;
2326;SDS011;1174;51.588;7.328;2023-04-10T08:35:10;3.60;;;3.00;;
2326;SDS011;1174;51.588;7.328;2023-04-10T08:37:39;3.70;;;2.43;;
2326;SDS011;1174;51.588;7.328;2023-04-10T08:40:06;2.40;;;2.20;;
2326;SDS011;1174;51.588;7.328;2023-04-10T08:42:34;3.30;;;2.90;;
2326;SDS011;1174;51.588;7.328;2023-04-10T08:45:05;4.20;;;2.80;;
2326;SDS011;1174;51.588;7.328;2023-04-10T08:47:36;2.97;;;2.30;;
2326;SDS011;1174;51.588;7.328;2023-04-10T08:50:08;5.57;;;2.87;;
2326;SDS011;1174;51.588;7.328;2023-04-10T08:52:40;3.87;;;3.30;;
2326;SDS011;1174;51.588;7.328;2023-04-10T08:55:12;2.23;;;1.87;;
2326;SDS011;1174;51.588;7.328;2023-04-10T08:57:39;3.37;;;2.30;;
2326;SDS011;1174;51.588;7.328;2023-04-10T09:00:08;3.23;;;2.17;;
2326;SDS011;1174;51.588;7.328;2023-04-10T09:02:39;5.10;;;2.60;;
2326;SDS011;1174;51.588;7.328;2023-04-10T09:05:16;3.00;;;2.70;;
2326;SDS011;1174;51.588;7.328;2023-04-10T09:07:43;2.23;;;1.77;;
2326;SDS011;1174;51.588;7.328;2023-04-10T09:10:13;2.53;;;1.77;;
2326;SDS011;1174;51.588;7.328;2023-04-10T09:12:42;2.13;;;1.87;;
2326;SDS011;1174;51.588;7.328;2023-04-10T09:15:11;2.20;;;1.73;;
2326;SDS011;1174;51.588;7.328;2023-04-10T09:17:53;2.70;;;2.33;;
2326;SDS011;1174;51.588;7.328;2023-04-10T09:20:27;3.37;;;2.10;;
2326;SDS011;1174;51.588;7.328;2023-04-10T09:22:55;2.57;;;2.10;;
2326;SDS011;1174;51.588;7.328;2023-04-10T09:25:29;4.33;;;3.03;;
2326;SDS011;1174;51.588;7.328;2023-04-10T09:28:01;2.33;;;2.10;;
2326;SDS011;1174;51.588;7.328;2023-04-10T09:30:32;2.30;;;1.50;;
2326;SDS011;1174;51.588;7.328;2023-04-10T09:33:14;2.90;;;2.30;;
2326;SDS011;1174;51.588;7.328;2023-04-10T09:35:49;2.37;;;1.77;;
2326;SDS011;1174;51.588;7.328;2023-04-10T09:38:16;2.23;;;1.80;;
2326;SDS011;1174;51.588;7.328;2023-04-10T09:40:44;2.90;;;2.07;;
2326;SDS011;1174;51.588;7.328;2023-04-10T09:43:18;2.53;;;2.07;;
2326;SDS011;1174;51.588;7.328;2023-04-10T09:45:51;1.80;;;1.70;;
2326;SDS011;1174;51.588;7.328;2023-04-10T09:48:23;3.90;;;3.23;;
2326;SDS011;1174;51.588;7.328;2023-04-10T09:50:52;2.70;;;1.37;;
2326;SDS011;1174;51.588;7.328;2023-04-10T09:53:19;2.53;;;1.70;;
2326;SDS011;1174;51.588;7.328;2023-04-10T09:55:47;2.23;;;2.00;;
2326;SDS011;1174;51.588;7.328;2023-04-10T09:58:15;2.13;;;1.90;;
2326;SDS011;1174;51.588;7.328;2023-04-10T10:00:44;2.63;;;2.43;;
2326;SDS011;1174;51.588;7.328;2023-04-10T10:03:16;2.07;;;1.87;;
2326;SDS011;1174;51.588;7.328;2023-04-10T10:05:47;2.40;;;1.63;;
2326;SDS011;1174;51.588;7.328;2023-04-10T10:08:18;2.33;;;1.90;;
2326;SDS011;1174;51.588;7.328;2023-04-10T10:10:47;3.77;;;2.27;;
2326;SDS011;1174;51.588;7.328;2023-04-10T10:13:23;3.87;;;1.80;;
2326;SDS011;1174;51.588;7.328;2023-04-10T10:15:57;2.33;;;1.80;;
2326;SDS011;1174;51.588;7.328;2023-04-10T10:18:31;1.70;;;1.40;;
2326;SDS011;1174;51.588;7.328;2023-04-10T10:21:04;2.47;;;1.83;;
2326;SDS011;1174;51.588;7.328;2023-04-10T10:23:35;3.23;;;1.80;;
2326;SDS011;1174;51.588;7.328;2023-04-10T10:26:07;2.17;;;1.70;;
2326;SDS011;1174;51.588;7.328;2023-04-10T10:28:44;2.53;;;1.90;;
2326;SDS011;1174;51.588;7.328;2023-04-10T10:31:12;2.27;;;2.07;;
2326;SDS011;1174;51.588;7.328;2023-04-10T10:33:42;3.80;;;1.83;;
2326;SDS011;1174;51.588;7.328;2023-04-10T10:36:11;2.00;;;1.73;;
2326;SDS011;1174;51.588;7.328;2023-04-10T10:38:51;2.77;;;2.53;;
2326;SDS011;1174;51.588;7.328;2023-04-10T10:41:24;2.43;;;1.70;;
2326;SDS011;1174;51.588;7.328;2023-04-10T10:43:59;2.20;;;1.73;;
2326;SDS011;1174;51.588;7.328;2023-04-10T10:46:34;3.20;;;1.73;;
2326;SDS011;1174;51.588;7.328;2023-04-10T10:49:08;2.30;;;2.10;;
2326;SDS011;1174;51.588;7.328;2023-04-10T10:51:42;3.43;;;1.87;;
2326;SDS011;1174;51.588;7.328;2023-04-10T10:54:27;2.47;;;2.00;;
2326;SDS011;1174;51.588;7.328;2023-04-10T10:57:00;2.07;;;1.87;;
2326;SDS011;1174;51.588;7.328;2023-04-10T11:02:22;2.50;;;1.63;;
2326;SDS011;1174;51.588;7.328;2023-04-10T11:04:49;3.07;;;2.17;;
2326;SDS011;1174;51.588;7.328;2023-04-10T11:07:19;3.13;;;1.80;;
2326;SDS011;1174;51.588;7.328;2023-04-10T11:09:51;2.47;;;2.00;;
2326;SDS011;1174;51.588;7.328;2023-04-10T11:12:21;2.80;;;2.50;;
2326;SDS011;1174;51.588;7.328;2023-04-10T11:17:51;2.47;;;2.10;;
2326;SDS011;1174;51.588;7.328;2023-04-10T11:20:20;2.40;;;1.50;;
2326;SDS011;1174;51.588;7.328;2023-04-10T11:23:07;8.17;;;5.10;;
2326;SDS011;1174;51.588;7.328;2023-04-10T11:25:54;2.00;;;1.47;;
2326;SDS011;1174;51.588;7.328;2023-04-10T11:31:16;3.00;;;1.83;;
2326;SDS011;1174;51.588;7.328;2023-04-10T11:33:49;2.30;;;1.90;;
2326;SDS011;1174;51.588;7.328;2023-04-10T11:36:27;2.20;;;1.77;;
2326;SDS011;1174;51.588;7.328;2023-04-10T11:38:58;1.97;;;1.77;;
2326;SDS011;1174;51.588;7.328;2023-04-10T11:41:31;2.47;;;1.90;;
2326;SDS011;1174;51.588;7.328;2023-04-10T11:44:01;1.80;;;1.60;;
2326;SDS011;1174;51.588;7.328;2023-04-10T11:46:37;2.47;;;2.10;;
2326;SDS011;1174;51.588;7.328;2023-04-10T11:49:05;2.10;;;1.90;;
2326;SDS011;1174;51.588;7.328;2023-04-10T11:51:35;3.00;;;1.77;;
2326;SDS011;1174;51.588;7.328;2023-04-10T11:54:05;4.10;;;2.20;;
2326;SDS011;1174;51.588;7.328;2023-04-10T11:56:36;2.27;;;2.07;;
2326;SDS011;1174;51.588;7.328;2023-04-10T11:59:12;2.63;;;1.80;;
2326;SDS011;1174;51.588;7.328;2023-04-10T12:01:46;2.07;;;1.57;;
2326;SDS011;1174;51.588;7.328;2023-04-10T12:04:14;4.97;;;1.93;;
2326;SDS011;1174;51.588;7.328;2023-04-10T12:06:43;2.70;;;2.00;;
2326;SDS011;1174;51.588;7.328;2023-04-10T12:09:14;3.53;;;2.50;;
2326;SDS011;1174;51.588;7.328;2023-04-10T12:11:49;2.03;;;1.70;;
2326;SDS011;1174;51.588;7.328;2023-04-10T12:14:18;3.17;;;2.10;;
2326;SDS011;1174;51.588;7.328;2023-04-10T12:16:46;1.97;;;1.77;;
2326;SDS011;1174;51.588;7.328;2023-04-10T12:19:13;3.33;;;2.13;;
2326;SDS011;1174;51.588;7.328;2023-04-10T12:21:45;1.73;;;1.53;;
2326;SDS011;1174;51.588;7.328;2023-04-10T12:27:08;2.90;;;2.57;;
2326;SDS011;1174;51.588;7.328;2023-04-10T12:29:41;3.10;;;2.03;;
2326;SDS011;1174;51.588;7.328;2023-04-10T12:32:12;1.83;;;1.50;;
2326;SDS011;1174;51.588;7.328;2023-04-10T12:34:39;2.03;;;1.83;;
2326;SDS011;1174;51.588;7.328;2023-04-10T12:37:07;2.10;;;1.60;;
2326;SDS011;1174;51.588;7.328;2023-04-10T12:39:36;6.10;;;1.97;;
2326;SDS011;1174;51.588;7.328;2023-04-10T12:42:11;2.33;;;2.07;;
2326;SDS011;1174;51.588;7.328;2023-04-10T12:44:49;2.43;;;2.10;;
2326;SDS011;1174;51.588;7.328;2023-04-10T12:47:17;8.20;;;2.77;;
2326;SDS011;1174;51.588;7.328;2023-04-10T12:52:36;1.83;;;1.70;;
2326;SDS011;1174;51.588;7.328;2023-04-10T12:55:08;2.50;;;2.00;;
2326;SDS011;1174;51.588;7.328;2023-04-10T12:57:39;2.17;;;1.70;;
2326;SDS011;1174;51.588;7.328;2023-04-10T13:00:07;2.93;;;1.83;;
2326;SDS011;1174;51.588;7.328;2023-04-10T13:02:35;1.80;;;1.30;;
2326;SDS011;1174;51.588;7.328;2023-04-10T13:05:05;3.30;;;2.10;;
2326;SDS011;1174;51.588;7.328;2023-04-10T13:07:33;5.37;;;2.60;;
2326;SDS011;1174;51.588;7.328;2023-04-10T13:10:03;3.10;;;1.83;;
2326;SDS011;1174;51.588;7.328;2023-04-10T13:12:31;2.83;;;1.90;;
2326;SDS011;1174;51.588;7.328;2023-04-10T13:15:00;1.97;;;1.60;;
2326;SDS011;1174;51.588;7.328;2023-04-10T13:17:28;2.10;;;1.67;;
2326;SDS011;1174;51.588;7.328;2023-04-10T13:19:57;2.20;;;2.00;;
2326;SDS011;1174;51.588;7.328;2023-04-10T13:22:24;3.10;;;1.80;;
2326;SDS011;1174;51.588;7.328;2023-04-10T13:24:53;3.83;;;1.80;;
2326;SDS011;1174;51.588;7.328;2023-04-10T13:27:20;2.23;;;1.60;;
2326;SDS011;1174;51.588;7.328;2023-04-10T13:29:48;1.53;;;1.20;;
2326;SDS011;1174;51.588;7.328;2023-04-10T13:32:16;2.00;;;1.40;;
2326;SDS011;1174;51.588;7.328;2023-04-10T13:34:44;1.90;;;1.43;;
2326;SDS011;1174;51.588;7.328;2023-04-10T13:37:19;1.77;;;1.60;;
2326;SDS011;1174;51.588;7.328;2023-04-10T13:39:49;2.67;;;1.80;;
2326;SDS011;1174;51.588;7.328;2023-04-10T13:42:16;1.70;;;1.40;;
2326;SDS011;1174;51.588;7.328;2023-04-10T13:44:50;1.63;;;1.50;;
2326;SDS011;1174;51.588;7.328;2023-04-10T13:47:18;2.07;;;1.87;;
2326;SDS011;1174;51.588;7.328;2023-04-10T13:49:46;2.40;;;1.57;;
2326;SDS011;1174;51.588;7.328;2023-04-10T13:52:13;2.57;;;2.00;;
2326;SDS011;1174;51.588;7.328;2023-04-10T13:54:41;3.90;;;1.73;;
2326;SDS011;1174;51.588;7.328;2023-04-10T13:57:10;1.80;;;1.30;;
2326;SDS011;1174;51.588;7.328;2023-04-10T13:59:38;3.30;;;2.50;;
2326;SDS011;1174;51.588;7.328;2023-04-10T14:02:05;1.57;;;1.40;;
2326;SDS011;1174;51.588;7.328;2023-04-10T14:04:33;1.80;;;1.60;;
2326;SDS011;1174;51.588;7.328;2023-04-10T14:07:02;2.60;;;1.67;;
2326;SDS011;1174;51.588;7.328;2023-04-10T14:09:31;1.80;;;1.70;;
2326;SDS011;1174;51.588;7.328;2023-04-10T14:12:00;2.10;;;1.90;;
2326;SDS011;1174;51.588;7.328;2023-04-10T14:14:35;2.53;;;1.50;;
2326;SDS011;1174;51.588;7.328;2023-04-10T14:17:05;1.93;;;1.70;;
2326;SDS011;1174;51.588;7.328;2023-04-10T14:19:33;2.17;;;1.20;;
2326;SDS011;1174;51.588;7.328;2023-04-10T14:22:01;2.30;;;1.70;;
2326;SDS011;1174;51.588;7.328;2023-04-10T14:24:28;1.63;;;1.47;;
2326;SDS011;1174;51.588;7.328;2023-04-10T14:27:03;1.60;;;1.47;;
2326;SDS011;1174;51.588;7.328;2023-04-10T14:29:32;2.10;;;1.67;;
2326;SDS011;1174;51.588;7.328;2023-04-10T14:31:59;2.40;;;1.67;;
2326;SDS011;1174;51.588;7.328;2023-04-10T14:34:27;2.40;;;1.83;;
2326;SDS011;1174;51.588;7.328;2023-04-10T14:36:55;2.60;;;1.83;;
2326;SDS011;1174;51.588;7.328;2023-04-10T14:39:25;2.13;;;1.93;;
2326;SDS011;1174;51.588;7.328;2023-04-10T14:41:53;2.50;;;1.50;;
2326;SDS011;1174;51.588;7.328;2023-04-10T14:44:22;2.10;;;1.87;;
2326;SDS011;1174;51.588;7.328;2023-04-10T14:46:50;2.70;;;1.57;;
2326;SDS011;1174;51.588;7.328;2023-04-10T14:49:19;2.27;;;1.57;;
2326;SDS011;1174;51.588;7.328;2023-04-10T14:51:46;2.30;;;1.70;;
2326;SDS011;1174;51.588;7.328;2023-04-10T14:54:16;2.40;;;1.60;;
2326;SDS011;1174;51.588;7.328;2023-04-10T14:56:45;1.90;;;1.43;;
2326;SDS011;1174;51.588;7.328;2023-04-10T14:59:13;5.30;;;2.87;;
2326;SDS011;1174;51.588;7.328;2023-04-10T15:01:41;3.30;;;1.97;;
2326;SDS011;1174;51.588;7.328;2023-04-10T15:04:09;2.90;;;1.87;;
2326;SDS011;1174;51.588;7.328;2023-04-10T15:06:38;4.00;;;2.10;;
2326;SDS011;1174;51.588;7.328;2023-04-10T15:09:06;2.47;;;1.87;;
2326;SDS011;1174;51.588;7.328;2023-04-10T15:11:33;3.67;;;1.97;;
2326;SDS011;1174;51.588;7.328;2023-04-10T15:14:00;2.17;;;1.80;;
2326;SDS011;1174;51.588;7.328;2023-04-10T15:16:28;1.93;;;1.37;;
2326;SDS011;1174;51.588;7.328;2023-04-10T15:18:59;4.00;;;2.30;;
2326;SDS011;1174;51.588;7.328;2023-04-10T15:21:27;2.50;;;1.83;;
2326;SDS011;1174;51.588;7.328;2023-04-10T15:23:55;2.27;;;1.67;;
2326;SDS011;1174;51.588;7.328;2023-04-10T15:26:22;3.60;;;2.80;;
2326;SDS011;1174;51.588;7.328;2023-04-10T15:28:52;3.07;;;2.13;;
2326;SDS011;1174;51.588;7.328;2023-04-10T15:31:20;1.90;;;1.70;;
2326;SDS011;1174;51.588;7.328;2023-04-10T15:33:51;2.37;;;1.67;;
2326;SDS011;1174;51.588;7.328;2023-04-10T15:36:20;3.83;;;3.20;;
2326;SDS011;1174;51.588;7.328;2023-04-10T15:38:52;3.83;;;1.63;;
2326;SDS011;1174;51.588;7.328;2023-04-10T15:41:19;2.00;;;1.60;;
2326;SDS011;1174;51.588;7.328;2023-04-10T15:43:47;1.90;;;1.60;;